sensor_id;sensor_type;location;lat;lon;timestamp;P1;durP1;ratioP1;P2;durP2;ratioP2
32130;SDS011;18639;50.716;7.086;2022-09-29T00:01:27;2.08;;;1.45;;
32130;SDS011;18639;50.716;7.086;2022-09-29T00:03:53;4.30;;;1.77;;
32130;SDS011;18639;50.716;7.086;2022-09-29T00:06:18;3.38;;;1.85;;
32130;SDS011;18639;50.716;7.086;2022-09-29T00:08:44;4.35;;;1.95;;
32130;SDS011;18639;50.716;7.086;2022-09-29T00:11:14;2.65;;;1.60;;
32130;SDS011;18639;50.716;7.086;2022-09-29T00:13:41;6.38;;;1.73;;
32130;SDS011;18639;50.716;7.086;2022-09-29T00:16:07;2.22;;;1.45;;
32130;SDS011;18639;50.716;7.086;2022-09-29T00:18:33;3.78;;;1.77;;
32130;SDS011;18639;50.716;7.086;2022-09-29T00:21:00;4.55;;;1.80;;
32130;SDS011;18639;50.716;7.086;2022-09-29T00:23:26;5.78;;;2.25;;
32130;SDS011;18639;50.716;7.086;2022-09-29T00:26:06;2.40;;;1.52;;
32130;SDS011;18639;50.716;7.086;2022-09-29T00:28:37;2.40;;;1.35;;
32130;SDS011;18639;50.716;7.086;2022-09-29T00:31:05;3.70;;;1.88;;
32130;SDS011;18639;50.716;7.086;2022-09-29T00:33:32;5.07;;;1.77;;
32130;SDS011;18639;50.716;7.086;2022-09-29T00:36:09;2.38;;;1.73;;
32130;SDS011;18639;50.716;7.086;2022-09-29T00:38:37;3.90;;;1.60;;
32130;SDS011;18639;50.716;7.086;2022-09-29T00:41:04;2.05;;;1.60;;
32130;SDS011;18639;50.716;7.086;2022-09-29T00:46:14;2.88;;;1.65;;
32130;SDS011;18639;50.716;7.086;2022-09-29T00:48:43;2.90;;;1.67;;
32130;SDS011;18639;50.716;7.086;2022-09-29T00:51:09;3.28;;;1.60;;
32130;SDS011;18639;50.716;7.086;2022-09-29T00:53:34;2.70;;;1.70;;
32130;SDS011;18639;50.716;7.086;2022-09-29T00:56:06;4.32;;;1.70;;
32130;SDS011;18639;50.716;7.086;2022-09-29T00:58:47;2.38;;;1.45;;
32130;SDS011;18639;50.716;7.086;2022-09-29T01:01:28;5.10;;;1.50;;
32130;SDS011;18639;50.716;7.086;2022-09-29T01:04:06;2.65;;;1.50;;
32130;SDS011;18639;50.716;7.086;2022-09-29T01:06:49;5.43;;;1.60;;
32130;SDS011;18639;50.716;7.086;2022-09-29T01:09:28;3.88;;;1.70;;
32130;SDS011;18639;50.716;7.086;2022-09-29T01:11:56;3.13;;;1.83;;
32130;SDS011;18639;50.716;7.086;2022-09-29T01:14:23;3.92;;;2.00;;
32130;SDS011;18639;50.716;7.086;2022-09-29T01:16:50;3.83;;;1.75;;
32130;SDS011;18639;50.716;7.086;2022-09-29T01:19:16;4.90;;;2.13;;
32130;SDS011;18639;50.716;7.086;2022-09-29T01:24:54;2.55;;;1.83;;
32130;SDS011;18639;50.716;7.086;2022-09-29T01:32:37;4.70;;;1.90;;
32130;SDS011;18639;50.716;7.086;2022-09-29T01:35:25;3.17;;;1.80;;
32130;SDS011;18639;50.716;7.086;2022-09-29T01:38:02;6.13;;;1.73;;
32130;SDS011;18639;50.716;7.086;2022-09-29T01:40:41;2.75;;;1.65;;
32130;SDS011;18639;50.716;7.086;2022-09-29T01:43:27;2.78;;;1.65;;
32130;SDS011;18639;50.716;7.086;2022-09-29T01:46:01;5.70;;;1.80;;
32130;SDS011;18639;50.716;7.086;2022-09-29T01:48:30;2.97;;;1.70;;
32130;SDS011;18639;50.716;7.086;2022-09-29T01:51:00;4.10;;;1.65;;
32130;SDS011;18639;50.716;7.086;2022-09-29T01:53:35;7.68;;;1.60;;
32130;SDS011;18639;50.716;7.086;2022-09-29T01:56:10;4.22;;;2.00;;
32130;SDS011;18639;50.716;7.086;2022-09-29T02:01:17;1.95;;;1.40;;
32130;SDS011;18639;50.716;7.086;2022-09-29T02:03:50;2.45;;;1.45;;
32130;SDS011;18639;50.716;7.086;2022-09-29T02:06:36;2.83;;;1.50;;
32130;SDS011;18639;50.716;7.086;2022-09-29T02:09:11;3.30;;;1.83;;
32130;SDS011;18639;50.716;7.086;2022-09-29T02:11:41;5.47;;;2.00;;
32130;SDS011;18639;50.716;7.086;2022-09-29T02:16:36;3.40;;;1.88;;
32130;SDS011;18639;50.716;7.086;2022-09-29T02:19:09;2.67;;;1.83;;
32130;SDS011;18639;50.716;7.086;2022-09-29T02:21:41;3.00;;;1.42;;
32130;SDS011;18639;50.716;7.086;2022-09-29T02:24:07;3.88;;;1.77;;
32130;SDS011;18639;50.716;7.086;2022-09-29T02:26:33;2.97;;;1.58;;
32130;SDS011;18639;50.716;7.086;2022-09-29T02:29:00;2.70;;;1.58;;
32130;SDS011;18639;50.716;7.086;2022-09-29T02:31:27;3.20;;;2.03;;
32130;SDS011;18639;50.716;7.086;2022-09-29T02:33:52;3.03;;;1.75;;
32130;SDS011;18639;50.716;7.086;2022-09-29T02:38:52;7.45;;;1.60;;
32130;SDS011;18639;50.716;7.086;2022-09-29T02:41:38;2.65;;;1.52;;
32130;SDS011;18639;50.716;7.086;2022-09-29T02:46:48;6.85;;;1.80;;
32130;SDS011;18639;50.716;7.086;2022-09-29T02:49:31;4.55;;;1.70;;
32130;SDS011;18639;50.716;7.086;2022-09-29T02:52:09;2.55;;;1.58;;
32130;SDS011;18639;50.716;7.086;2022-09-29T03:00:21;2.40;;;1.52;;
32130;SDS011;18639;50.716;7.086;2022-09-29T03:02:47;2.47;;;1.45;;
32130;SDS011;18639;50.716;7.086;2022-09-29T03:05:14;2.35;;;1.70;;
32130;SDS011;18639;50.716;7.086;2022-09-29T03:07:42;3.70;;;1.67;;
32130;SDS011;18639;50.716;7.086;2022-09-29T03:10:08;3.78;;;2.30;;
32130;SDS011;18639;50.716;7.086;2022-09-29T03:12:34;4.15;;;2.00;;
32130;SDS011;18639;50.716;7.086;2022-09-29T03:15:00;2.58;;;1.77;;
32130;SDS011;18639;50.716;7.086;2022-09-29T03:17:26;3.53;;;1.60;;
32130;SDS011;18639;50.716;7.086;2022-09-29T03:19:51;2.72;;;1.60;;
32130;SDS011;18639;50.716;7.086;2022-09-29T03:22:17;6.25;;;1.88;;
32130;SDS011;18639;50.716;7.086;2022-09-29T03:24:43;4.68;;;2.50;;
32130;SDS011;18639;50.716;7.086;2022-09-29T03:27:08;4.90;;;2.47;;
32130;SDS011;18639;50.716;7.086;2022-09-29T03:29:34;3.17;;;1.75;;
32130;SDS011;18639;50.716;7.086;2022-09-29T03:32:00;4.25;;;2.10;;
32130;SDS011;18639;50.716;7.086;2022-09-29T03:34:25;4.88;;;2.00;;
32130;SDS011;18639;50.716;7.086;2022-09-29T03:36:51;4.03;;;1.70;;
32130;SDS011;18639;50.716;7.086;2022-09-29T03:39:17;2.92;;;1.70;;
32130;SDS011;18639;50.716;7.086;2022-09-29T03:41:42;5.25;;;1.70;;
32130;SDS011;18639;50.716;7.086;2022-09-29T03:44:07;3.67;;;2.13;;
32130;SDS011;18639;50.716;7.086;2022-09-29T03:46:33;3.22;;;1.52;;
32130;SDS011;18639;50.716;7.086;2022-09-29T03:48:58;4.18;;;1.73;;
32130;SDS011;18639;50.716;7.086;2022-09-29T03:51:23;5.38;;;1.70;;
32130;SDS011;18639;50.716;7.086;2022-09-29T03:53:49;6.13;;;1.80;;
32130;SDS011;18639;50.716;7.086;2022-09-29T03:56:14;2.83;;;1.55;;
32130;SDS011;18639;50.716;7.086;2022-09-29T03:58:40;5.03;;;1.80;;
32130;SDS011;18639;50.716;7.086;2022-09-29T04:01:05;4.43;;;1.52;;
32130;SDS011;18639;50.716;7.086;2022-09-29T04:03:31;3.42;;;1.85;;
32130;SDS011;18639;50.716;7.086;2022-09-29T04:05:56;2.70;;;1.88;;
32130;SDS011;18639;50.716;7.086;2022-09-29T04:08:22;4.10;;;1.70;;
32130;SDS011;18639;50.716;7.086;2022-09-29T04:10:49;3.20;;;2.00;;
32130;SDS011;18639;50.716;7.086;2022-09-29T04:13:15;3.40;;;2.00;;
32130;SDS011;18639;50.716;7.086;2022-09-29T04:15:40;2.90;;;1.83;;
32130;SDS011;18639;50.716;7.086;2022-09-29T04:18:06;3.90;;;2.10;;
32130;SDS011;18639;50.716;7.086;2022-09-29T04:20:31;5.75;;;1.70;;
32130;SDS011;18639;50.716;7.086;2022-09-29T04:22:57;3.38;;;1.85;;
32130;SDS011;18639;50.716;7.086;2022-09-29T04:25:24;2.85;;;1.77;;
32130;SDS011;18639;50.716;7.086;2022-09-29T04:27:49;8.73;;;1.80;;
32130;SDS011;18639;50.716;7.086;2022-09-29T04:30:15;3.70;;;1.63;;
32130;SDS011;18639;50.716;7.086;2022-09-29T04:32:41;3.67;;;1.88;;
32130;SDS011;18639;50.716;7.086;2022-09-29T04:35:06;4.18;;;1.98;;
32130;SDS011;18639;50.716;7.086;2022-09-29T04:37:32;8.18;;;2.20;;
32130;SDS011;18639;50.716;7.086;2022-09-29T04:40:02;4.88;;;2.13;;
32130;SDS011;18639;50.716;7.086;2022-09-29T04:42:29;3.35;;;1.85;;
32130;SDS011;18639;50.716;7.086;2022-09-29T04:44:54;4.47;;;2.13;;
32130;SDS011;18639;50.716;7.086;2022-09-29T04:47:20;4.22;;;2.05;;
32130;SDS011;18639;50.716;7.086;2022-09-29T04:49:45;3.08;;;1.83;;
32130;SDS011;18639;50.716;7.086;2022-09-29T04:52:11;2.38;;;1.73;;
32130;SDS011;18639;50.716;7.086;2022-09-29T04:54:37;2.38;;;1.60;;
32130;SDS011;18639;50.716;7.086;2022-09-29T04:57:03;3.58;;;2.00;;
32130;SDS011;18639;50.716;7.086;2022-09-29T04:59:28;3.58;;;1.70;;
32130;SDS011;18639;50.716;7.086;2022-09-29T05:01:53;4.70;;;2.13;;
32130;SDS011;18639;50.716;7.086;2022-09-29T05:04:19;6.55;;;2.20;;
32130;SDS011;18639;50.716;7.086;2022-09-29T05:06:44;5.47;;;2.60;;
32130;SDS011;18639;50.716;7.086;2022-09-29T05:09:10;4.20;;;2.28;;
32130;SDS011;18639;50.716;7.086;2022-09-29T05:11:35;5.55;;;2.08;;
32130;SDS011;18639;50.716;7.086;2022-09-29T05:14:00;4.93;;;2.00;;
32130;SDS011;18639;50.716;7.086;2022-09-29T05:16:26;3.13;;;1.98;;
32130;SDS011;18639;50.716;7.086;2022-09-29T05:18:51;4.15;;;2.15;;
32130;SDS011;18639;50.716;7.086;2022-09-29T05:21:17;7.35;;;3.00;;
32130;SDS011;18639;50.716;7.086;2022-09-29T05:23:43;4.25;;;2.25;;
32130;SDS011;18639;50.716;7.086;2022-09-29T05:26:09;3.88;;;2.22;;
32130;SDS011;18639;50.716;7.086;2022-09-29T05:28:36;5.18;;;2.50;;
32130;SDS011;18639;50.716;7.086;2022-09-29T05:31:04;5.05;;;2.97;;
32130;SDS011;18639;50.716;7.086;2022-09-29T05:33:31;4.90;;;2.55;;
32130;SDS011;18639;50.716;7.086;2022-09-29T05:35:57;4.13;;;2.47;;
32130;SDS011;18639;50.716;7.086;2022-09-29T05:38:23;5.28;;;2.30;;
32130;SDS011;18639;50.716;7.086;2022-09-29T05:40:49;6.32;;;2.72;;
32130;SDS011;18639;50.716;7.086;2022-09-29T05:43:15;4.78;;;2.58;;
32130;SDS011;18639;50.716;7.086;2022-09-29T05:45:40;4.85;;;2.58;;
32130;SDS011;18639;50.716;7.086;2022-09-29T05:48:06;4.30;;;2.38;;
32130;SDS011;18639;50.716;7.086;2022-09-29T05:50:32;4.18;;;2.08;;
32130;SDS011;18639;50.716;7.086;2022-09-29T05:53:05;6.18;;;2.60;;
32130;SDS011;18639;50.716;7.086;2022-09-29T05:55:30;5.00;;;2.65;;
32130;SDS011;18639;50.716;7.086;2022-09-29T05:57:56;5.53;;;2.95;;
32130;SDS011;18639;50.716;7.086;2022-09-29T06:00:21;5.72;;;2.70;;
32130;SDS011;18639;50.716;7.086;2022-09-29T06:02:46;3.90;;;2.60;;
32130;SDS011;18639;50.716;7.086;2022-09-29T06:05:11;5.40;;;2.80;;
32130;SDS011;18639;50.716;7.086;2022-09-29T06:07:37;4.85;;;3.05;;
32130;SDS011;18639;50.716;7.086;2022-09-29T06:10:02;7.63;;;2.50;;
32130;SDS011;18639;50.716;7.086;2022-09-29T06:12:28;3.53;;;2.20;;
32130;SDS011;18639;50.716;7.086;2022-09-29T06:14:58;4.78;;;2.47;;
32130;SDS011;18639;50.716;7.086;2022-09-29T06:17:23;4.07;;;2.30;;
32130;SDS011;18639;50.716;7.086;2022-09-29T06:19:48;5.30;;;2.65;;
32130;SDS011;18639;50.716;7.086;2022-09-29T06:22:14;8.68;;;2.95;;
32130;SDS011;18639;50.716;7.086;2022-09-29T06:24:39;10.45;;;3.00;;
32130;SDS011;18639;50.716;7.086;2022-09-29T06:27:04;5.20;;;2.33;;
32130;SDS011;18639;50.716;7.086;2022-09-29T06:29:29;6.60;;;2.38;;
32130;SDS011;18639;50.716;7.086;2022-09-29T06:31:55;4.20;;;2.22;;
32130;SDS011;18639;50.716;7.086;2022-09-29T06:34:20;6.18;;;2.72;;
32130;SDS011;18639;50.716;7.086;2022-09-29T06:36:45;5.93;;;2.65;;
32130;SDS011;18639;50.716;7.086;2022-09-29T06:39:31;5.57;;;2.70;;
32130;SDS011;18639;50.716;7.086;2022-09-29T06:41:56;6.85;;;2.88;;
32130;SDS011;18639;50.716;7.086;2022-09-29T06:44:23;9.27;;;3.20;;
32130;SDS011;18639;50.716;7.086;2022-09-29T06:46:50;6.43;;;3.08;;
32130;SDS011;18639;50.716;7.086;2022-09-29T06:49:17;8.90;;;3.45;;
32130;SDS011;18639;50.716;7.086;2022-09-29T06:51:43;5.85;;;2.95;;
32130;SDS011;18639;50.716;7.086;2022-09-29T06:54:10;6.53;;;2.83;;
32130;SDS011;18639;50.716;7.086;2022-09-29T06:56:36;6.03;;;3.58;;
32130;SDS011;18639;50.716;7.086;2022-09-29T06:59:01;8.48;;;3.00;;
32130;SDS011;18639;50.716;7.086;2022-09-29T07:01:27;9.57;;;3.55;;
32130;SDS011;18639;50.716;7.086;2022-09-29T07:03:52;8.38;;;3.45;;
32130;SDS011;18639;50.716;7.086;2022-09-29T07:06:17;9.43;;;2.90;;
32130;SDS011;18639;50.716;7.086;2022-09-29T07:08:43;6.88;;;3.03;;
32130;SDS011;18639;50.716;7.086;2022-09-29T07:11:08;6.80;;;3.67;;
32130;SDS011;18639;50.716;7.086;2022-09-29T07:13:34;8.63;;;3.53;;
32130;SDS011;18639;50.716;7.086;2022-09-29T07:18:37;6.85;;;3.70;;
32130;SDS011;18639;50.716;7.086;2022-09-29T07:21:04;7.78;;;3.67;;
32130;SDS011;18639;50.716;7.086;2022-09-29T07:23:30;7.18;;;3.60;;
32130;SDS011;18639;50.716;7.086;2022-09-29T07:25:56;7.03;;;3.45;;
32130;SDS011;18639;50.716;7.086;2022-09-29T07:28:22;6.85;;;3.08;;
32130;SDS011;18639;50.716;7.086;2022-09-29T07:30:56;7.32;;;3.63;;
32130;SDS011;18639;50.716;7.086;2022-09-29T07:33:25;8.25;;;3.13;;
32130;SDS011;18639;50.716;7.086;2022-09-29T07:35:51;6.65;;;3.20;;
32130;SDS011;18639;50.716;7.086;2022-09-29T07:38:18;7.70;;;3.65;;
32130;SDS011;18639;50.716;7.086;2022-09-29T07:40:43;5.95;;;3.20;;
32130;SDS011;18639;50.716;7.086;2022-09-29T07:45:54;5.97;;;2.97;;
32130;SDS011;18639;50.716;7.086;2022-09-29T07:48:20;3.63;;;2.40;;
32130;SDS011;18639;50.716;7.086;2022-09-29T07:50:45;4.25;;;2.25;;
32130;SDS011;18639;50.716;7.086;2022-09-29T07:53:11;6.90;;;2.45;;
32130;SDS011;18639;50.716;7.086;2022-09-29T07:55:37;4.95;;;2.75;;
32130;SDS011;18639;50.716;7.086;2022-09-29T07:58:04;4.28;;;2.47;;
32130;SDS011;18639;50.716;7.086;2022-09-29T08:00:30;3.78;;;2.30;;
32130;SDS011;18639;50.716;7.086;2022-09-29T08:05:51;4.60;;;2.60;;
32130;SDS011;18639;50.716;7.086;2022-09-29T08:08:16;6.32;;;3.17;;
32130;SDS011;18639;50.716;7.086;2022-09-29T08:10:42;4.03;;;2.50;;
32130;SDS011;18639;50.716;7.086;2022-09-29T08:13:07;8.85;;;2.50;;
32130;SDS011;18639;50.716;7.086;2022-09-29T08:15:33;5.32;;;2.72;;
32130;SDS011;18639;50.716;7.086;2022-09-29T08:17:58;4.00;;;2.60;;
32130;SDS011;18639;50.716;7.086;2022-09-29T08:20:23;4.20;;;2.38;;
32130;SDS011;18639;50.716;7.086;2022-09-29T08:22:50;4.47;;;2.22;;
32130;SDS011;18639;50.716;7.086;2022-09-29T08:25:16;5.10;;;2.67;;
32130;SDS011;18639;50.716;7.086;2022-09-29T08:27:42;5.43;;;2.70;;
32130;SDS011;18639;50.716;7.086;2022-09-29T08:30:09;4.18;;;2.25;;
32130;SDS011;18639;50.716;7.086;2022-09-29T08:32:35;4.63;;;2.45;;
32130;SDS011;18639;50.716;7.086;2022-09-29T08:35:01;4.97;;;2.58;;
32130;SDS011;18639;50.716;7.086;2022-09-29T08:37:26;5.80;;;2.25;;
32130;SDS011;18639;50.716;7.086;2022-09-29T08:39:52;5.75;;;3.10;;
32130;SDS011;18639;50.716;7.086;2022-09-29T08:44:56;2.83;;;1.80;;
32130;SDS011;18639;50.716;7.086;2022-09-29T08:47:28;2.70;;;1.80;;
32130;SDS011;18639;50.716;7.086;2022-09-29T08:53:07;3.40;;;2.13;;
32130;SDS011;18639;50.716;7.086;2022-09-29T08:58:01;6.67;;;2.43;;
32130;SDS011;18639;50.716;7.086;2022-09-29T09:20:44;6.20;;;3.00;;
32130;SDS011;18639;50.716;7.086;2022-09-29T09:23:23;8.25;;;3.03;;
32130;SDS011;18639;50.716;7.086;2022-09-29T09:26:02;7.53;;;2.90;;
32130;SDS011;18639;50.716;7.086;2022-09-29T09:31:14;6.28;;;3.17;;
32130;SDS011;18639;50.716;7.086;2022-09-29T09:33:48;8.30;;;3.70;;
32130;SDS011;18639;50.716;7.086;2022-09-29T09:36:19;6.50;;;3.53;;
32130;SDS011;18639;50.716;7.086;2022-09-29T09:41:40;7.18;;;4.03;;
32130;SDS011;18639;50.716;7.086;2022-09-29T09:44:13;9.82;;;4.18;;
32130;SDS011;18639;50.716;7.086;2022-09-29T09:46:48;9.80;;;4.38;;
32130;SDS011;18639;50.716;7.086;2022-09-29T09:49:29;6.57;;;3.80;;
32130;SDS011;18639;50.716;7.086;2022-09-29T09:52:03;8.57;;;4.25;;
32130;SDS011;18639;50.716;7.086;2022-09-29T09:54:37;8.40;;;3.92;;
32130;SDS011;18639;50.716;7.086;2022-09-29T10:02:17;7.05;;;4.10;;
32130;SDS011;18639;50.716;7.086;2022-09-29T10:04:45;6.47;;;3.50;;
32130;SDS011;18639;50.716;7.086;2022-09-29T10:07:13;6.75;;;3.85;;
32130;SDS011;18639;50.716;7.086;2022-09-29T10:09:39;9.32;;;3.88;;
32130;SDS011;18639;50.716;7.086;2022-09-29T10:12:04;8.32;;;3.50;;
32130;SDS011;18639;50.716;7.086;2022-09-29T10:14:29;7.25;;;3.60;;
32130;SDS011;18639;50.716;7.086;2022-09-29T10:17:02;7.03;;;3.00;;
32130;SDS011;18639;50.716;7.086;2022-09-29T10:22:20;5.70;;;3.10;;
32130;SDS011;18639;50.716;7.086;2022-09-29T10:24:46;4.65;;;2.95;;
32130;SDS011;18639;50.716;7.086;2022-09-29T10:27:16;5.15;;;2.90;;
32130;SDS011;18639;50.716;7.086;2022-09-29T10:29:45;4.45;;;2.70;;
32130;SDS011;18639;50.716;7.086;2022-09-29T10:34:52;5.88;;;2.72;;
32130;SDS011;18639;50.716;7.086;2022-09-29T10:37:31;3.70;;;2.50;;
32130;SDS011;18639;50.716;7.086;2022-09-29T10:42:38;7.10;;;2.78;;
32130;SDS011;18639;50.716;7.086;2022-09-29T10:45:26;5.78;;;2.88;;
32130;SDS011;18639;50.716;7.086;2022-09-29T10:50:23;7.18;;;2.95;;
32130;SDS011;18639;50.716;7.086;2022-09-29T10:53:00;4.55;;;2.58;;
32130;SDS011;18639;50.716;7.086;2022-09-29T10:55:29;4.38;;;2.67;;
32130;SDS011;18639;50.716;7.086;2022-09-29T10:57:58;5.38;;;2.60;;
32130;SDS011;18639;50.716;7.086;2022-09-29T11:00:28;5.90;;;2.83;;
32130;SDS011;18639;50.716;7.086;2022-09-29T11:05:54;4.13;;;2.53;;
32130;SDS011;18639;50.716;7.086;2022-09-29T11:08:23;6.97;;;2.92;;
32130;SDS011;18639;50.716;7.086;2022-09-29T11:11:25;5.65;;;2.97;;
32130;SDS011;18639;50.716;7.086;2022-09-29T11:13:46;7.03;;;2.70;;
32130;SDS011;18639;50.716;7.086;2022-09-29T11:16:15;6.82;;;3.30;;
32130;SDS011;18639;50.716;7.086;2022-09-29T11:18:43;5.38;;;2.63;;
32130;SDS011;18639;50.716;7.086;2022-09-29T11:26:50;4.35;;;2.78;;
32130;SDS011;18639;50.716;7.086;2022-09-29T11:32:16;5.82;;;2.90;;
32130;SDS011;18639;50.716;7.086;2022-09-29T11:34:52;5.78;;;2.30;;
32130;SDS011;18639;50.716;7.086;2022-09-29T11:56:54;3.28;;;1.80;;
32130;SDS011;18639;50.716;7.086;2022-09-29T12:02:21;5.03;;;2.80;;
32130;SDS011;18639;50.716;7.086;2022-09-29T12:05:10;5.88;;;1.40;;
32130;SDS011;18639;50.716;7.086;2022-09-29T12:08:00;2.30;;;1.50;;
32130;SDS011;18639;50.716;7.086;2022-09-29T12:15:54;3.92;;;1.30;;
32130;SDS011;18639;50.716;7.086;2022-09-29T12:18:27;5.88;;;1.00;;
32130;SDS011;18639;50.716;7.086;2022-09-29T12:20:59;3.30;;;1.30;;
32130;SDS011;18639;50.716;7.086;2022-09-29T12:23:26;1.75;;;0.70;;
32130;SDS011;18639;50.716;7.086;2022-09-29T12:25:55;1.10;;;0.80;;
32130;SDS011;18639;50.716;7.086;2022-09-29T12:28:26;2.60;;;0.80;;
32130;SDS011;18639;50.716;7.086;2022-09-29T12:31:00;2.10;;;1.45;;
32130;SDS011;18639;50.716;7.086;2022-09-29T12:33:33;2.53;;;1.20;;
32130;SDS011;18639;50.716;7.086;2022-09-29T12:36:09;2.35;;;1.40;;
32130;SDS011;18639;50.716;7.086;2022-09-29T12:44:45;1.85;;;1.40;;
32130;SDS011;18639;50.716;7.086;2022-09-29T12:50:27;2.42;;;1.08;;
32130;SDS011;18639;50.716;7.086;2022-09-29T12:55:45;3.17;;;1.20;;
32130;SDS011;18639;50.716;7.086;2022-09-29T12:58:20;1.85;;;1.10;;
32130;SDS011;18639;50.716;7.086;2022-09-29T13:00:51;1.73;;;1.08;;
32130;SDS011;18639;50.716;7.086;2022-09-29T13:03:48;1.45;;;1.10;;
32130;SDS011;18639;50.716;7.086;2022-09-29T13:09:42;4.22;;;1.02;;
32130;SDS011;18639;50.716;7.086;2022-09-29T13:23:08;1.55;;;1.00;;
32130;SDS011;18639;50.716;7.086;2022-09-29T13:28:18;2.95;;;1.33;;
32130;SDS011;18639;50.716;7.086;2022-09-29T13:30:50;1.58;;;1.15;;
32130;SDS011;18639;50.716;7.086;2022-09-29T13:33:21;1.73;;;1.17;;
32130;SDS011;18639;50.716;7.086;2022-09-29T13:35:49;2.28;;;1.00;;
32130;SDS011;18639;50.716;7.086;2022-09-29T13:38:17;2.30;;;1.27;;
32130;SDS011;18639;50.716;7.086;2022-09-29T13:46:41;3.20;;;1.40;;
32130;SDS011;18639;50.716;7.086;2022-09-29T13:56:59;1.38;;;1.00;;
32130;SDS011;18639;50.716;7.086;2022-09-29T13:59:30;1.65;;;1.15;;
32130;SDS011;18639;50.716;7.086;2022-09-29T14:01:56;2.85;;;1.20;;
32130;SDS011;18639;50.716;7.086;2022-09-29T14:04:32;2.08;;;1.10;;
32130;SDS011;18639;50.716;7.086;2022-09-29T14:07:33;1.65;;;1.10;;
32130;SDS011;18639;50.716;7.086;2022-09-29T14:12:58;2.63;;;1.27;;
32130;SDS011;18639;50.716;7.086;2022-09-29T14:15:34;2.45;;;1.08;;
32130;SDS011;18639;50.716;7.086;2022-09-29T14:18:04;4.53;;;1.13;;
32130;SDS011;18639;50.716;7.086;2022-09-29T14:20:55;2.85;;;1.00;;
32130;SDS011;18639;50.716;7.086;2022-09-29T14:29:09;2.38;;;1.00;;
32130;SDS011;18639;50.716;7.086;2022-09-29T14:31:40;2.45;;;1.00;;
32130;SDS011;18639;50.716;7.086;2022-09-29T14:34:10;1.30;;;1.00;;
32130;SDS011;18639;50.716;7.086;2022-09-29T14:36:40;3.60;;;1.05;;
32130;SDS011;18639;50.716;7.086;2022-09-29T14:39:09;2.83;;;1.10;;
32130;SDS011;18639;50.716;7.086;2022-09-29T14:41:42;3.22;;;1.10;;
32130;SDS011;18639;50.716;7.086;2022-09-29T14:47:20;5.20;;;1.67;;
32130;SDS011;18639;50.716;7.086;2022-09-29T14:55:50;2.42;;;1.17;;
32130;SDS011;18639;50.716;7.086;2022-09-29T14:58:52;2.00;;;0.95;;
32130;SDS011;18639;50.716;7.086;2022-09-29T15:01:31;2.20;;;1.13;;
32130;SDS011;18639;50.716;7.086;2022-09-29T15:04:04;1.85;;;1.08;;
32130;SDS011;18639;50.716;7.086;2022-09-29T15:06:45;1.15;;;0.90;;
32130;SDS011;18639;50.716;7.086;2022-09-29T15:09:16;2.78;;;1.08;;
32130;SDS011;18639;50.716;7.086;2022-09-29T15:11:44;2.53;;;0.90;;
32130;SDS011;18639;50.716;7.086;2022-09-29T15:27:49;1.90;;;1.00;;
32130;SDS011;18639;50.716;7.086;2022-09-29T15:30:19;3.42;;;1.10;;
32130;SDS011;18639;50.716;7.086;2022-09-29T15:32:47;2.38;;;0.90;;
32130;SDS011;18639;50.716;7.086;2022-09-29T15:35:15;1.52;;;1.13;;
32130;SDS011;18639;50.716;7.086;2022-09-29T15:40:18;0.95;;;0.70;;
32130;SDS011;18639;50.716;7.086;2022-09-29T15:42:45;1.33;;;0.90;;
32130;SDS011;18639;50.716;7.086;2022-09-29T15:45:15;0.98;;;0.80;;
32130;SDS011;18639;50.716;7.086;2022-09-29T15:47:43;1.65;;;0.80;;
32130;SDS011;18639;50.716;7.086;2022-09-29T15:50:22;1.38;;;0.93;;
32130;SDS011;18639;50.716;7.086;2022-09-29T15:52:49;1.17;;;0.70;;
32130;SDS011;18639;50.716;7.086;2022-09-29T15:55:16;1.58;;;0.80;;
32130;SDS011;18639;50.716;7.086;2022-09-29T15:57:44;2.55;;;0.82;;
32130;SDS011;18639;50.716;7.086;2022-09-29T16:02:50;3.35;;;0.98;;
32130;SDS011;18639;50.716;7.086;2022-09-29T16:05:38;1.05;;;0.75;;
32130;SDS011;18639;50.716;7.086;2022-09-29T16:08:06;7.95;;;0.93;;
32130;SDS011;18639;50.716;7.086;2022-09-29T16:11:02;1.75;;;1.00;;
32130;SDS011;18639;50.716;7.086;2022-09-29T16:13:29;2.85;;;1.20;;
32130;SDS011;18639;50.716;7.086;2022-09-29T16:15:58;1.48;;;0.68;;
32130;SDS011;18639;50.716;7.086;2022-09-29T16:18:36;3.67;;;1.10;;
32130;SDS011;18639;50.716;7.086;2022-09-29T16:21:07;1.88;;;1.13;;
32130;SDS011;18639;50.716;7.086;2022-09-29T16:31:24;3.78;;;0.90;;
32130;SDS011;18639;50.716;7.086;2022-09-29T16:33:52;1.67;;;0.90;;
32130;SDS011;18639;50.716;7.086;2022-09-29T16:36:21;1.88;;;0.75;;
32130;SDS011;18639;50.716;7.086;2022-09-29T16:38:56;4.35;;;0.85;;
32130;SDS011;18639;50.716;7.086;2022-09-29T16:41:25;1.20;;;1.00;;
32130;SDS011;18639;50.716;7.086;2022-09-29T16:49:20;2.15;;;0.88;;
32130;SDS011;18639;50.716;7.086;2022-09-29T16:51:53;4.40;;;1.00;;
32130;SDS011;18639;50.716;7.086;2022-09-29T16:54:22;3.47;;;1.02;;
32130;SDS011;18639;50.716;7.086;2022-09-29T16:57:08;3.72;;;1.30;;
32130;SDS011;18639;50.716;7.086;2022-09-29T16:59:41;1.25;;;1.00;;
32130;SDS011;18639;50.716;7.086;2022-09-29T17:02:09;3.30;;;1.30;;
32130;SDS011;18639;50.716;7.086;2022-09-29T17:04:35;3.05;;;1.30;;
32130;SDS011;18639;50.716;7.086;2022-09-29T17:07:00;1.38;;;1.05;;
32130;SDS011;18639;50.716;7.086;2022-09-29T17:09:28;4.20;;;1.15;;
32130;SDS011;18639;50.716;7.086;2022-09-29T17:11:54;1.95;;;1.30;;
32130;SDS011;18639;50.716;7.086;2022-09-29T17:14:19;1.45;;;1.02;;
32130;SDS011;18639;50.716;7.086;2022-09-29T17:16:48;1.73;;;1.00;;
32130;SDS011;18639;50.716;7.086;2022-09-29T17:19:15;1.52;;;1.02;;
32130;SDS011;18639;50.716;7.086;2022-09-29T17:21:41;2.45;;;1.10;;
32130;SDS011;18639;50.716;7.086;2022-09-29T17:24:07;3.42;;;1.13;;
32130;SDS011;18639;50.716;7.086;2022-09-29T17:26:39;2.58;;;1.63;;
32130;SDS011;18639;50.716;7.086;2022-09-29T17:29:26;2.83;;;1.30;;
32130;SDS011;18639;50.716;7.086;2022-09-29T17:31:51;1.45;;;1.10;;
32130;SDS011;18639;50.716;7.086;2022-09-29T17:34:16;1.73;;;1.10;;
32130;SDS011;18639;50.716;7.086;2022-09-29T17:36:46;1.98;;;1.30;;
32130;SDS011;18639;50.716;7.086;2022-09-29T17:39:11;2.25;;;1.27;;
32130;SDS011;18639;50.716;7.086;2022-09-29T17:41:37;2.20;;;1.48;;
32130;SDS011;18639;50.716;7.086;2022-09-29T17:44:02;2.15;;;1.33;;
32130;SDS011;18639;50.716;7.086;2022-09-29T17:46:30;3.67;;;1.17;;
32130;SDS011;18639;50.716;7.086;2022-09-29T17:48:55;1.83;;;1.27;;
32130;SDS011;18639;50.716;7.086;2022-09-29T17:51:20;9.63;;;1.50;;
32130;SDS011;18639;50.716;7.086;2022-09-29T17:53:46;5.75;;;1.52;;
32130;SDS011;18639;50.716;7.086;2022-09-29T17:56:17;2.83;;;1.33;;
32130;SDS011;18639;50.716;7.086;2022-09-29T17:58:46;1.73;;;1.13;;
32130;SDS011;18639;50.716;7.086;2022-09-29T18:01:15;6.93;;;1.02;;
32130;SDS011;18639;50.716;7.086;2022-09-29T18:03:45;1.67;;;1.20;;
32130;SDS011;18639;50.716;7.086;2022-09-29T18:06:19;1.45;;;0.90;;
32130;SDS011;18639;50.716;7.086;2022-09-29T18:08:47;3.10;;;1.25;;
32130;SDS011;18639;50.716;7.086;2022-09-29T18:11:15;6.97;;;1.40;;
32130;SDS011;18639;50.716;7.086;2022-09-29T18:13:41;2.42;;;1.23;;
32130;SDS011;18639;50.716;7.086;2022-09-29T18:16:07;2.45;;;1.30;;
32130;SDS011;18639;50.716;7.086;2022-09-29T18:18:36;4.30;;;2.25;;
32130;SDS011;18639;50.716;7.086;2022-09-29T18:21:01;2.55;;;1.40;;
32130;SDS011;18639;50.716;7.086;2022-09-29T18:23:27;2.70;;;1.15;;
32130;SDS011;18639;50.716;7.086;2022-09-29T18:25:52;3.60;;;1.20;;
32130;SDS011;18639;50.716;7.086;2022-09-29T18:28:19;3.60;;;1.27;;
32130;SDS011;18639;50.716;7.086;2022-09-29T18:30:46;2.53;;;1.10;;
32130;SDS011;18639;50.716;7.086;2022-09-29T18:33:14;2.53;;;1.50;;
32130;SDS011;18639;50.716;7.086;2022-09-29T18:35:42;2.38;;;1.42;;
32130;SDS011;18639;50.716;7.086;2022-09-29T18:38:09;13.18;;;1.73;;